ADDS METAR Data INFO
IDs: Format: Raw Decoded Include TAF

Data at: 1039 UTC 16 Jul 2018

KRKR 161035Z AUTO 00000KT 10SM SCT120 25/22 A2999 RMK AO2
KRKR 161015Z AUTO 00000KT 10SM OVC110 25/22 A2998 RMK AO2 LTG DSNT N
KRKR 160955Z AUTO 00000KT 10SM BKN110 25/22 A2997 RMK AO2 LTG DSNT NW THRU NE
KRKR 160935Z AUTO 00000KT 10SM CLR 25/22 A2997 RMK AO2 LTG DSNT N
KRKR 160915Z AUTO 00000KT 10SM CLR 25/22 A2997 RMK AO2 LTG DSNT N AND NW
KRKR 160855Z AUTO 00000KT 10SM CLR 26/22 A2997 RMK AO2 LTG DSNT N AND NW
KRKR 160835Z AUTO 22003KT 10SM CLR 25/22 A2996 RMK AO2 LTG DSNT NW
KRKR 160815Z AUTO 00000KT 10SM SCT100 26/22 A2997 RMK AO2 LTG DSNT N
KRKR 160755Z AUTO 22004KT 10SM CLR 25/22 A2997 RMK AO2
KRKR 160735Z AUTO 25003KT 10SM CLR 26/21 A2997 RMK AO2 LTG DSNT N AND NW
KRKR 160715Z AUTO 10SM CLR 26/21 A2998 RMK AO2 LTG DSNT NW
KRKR 160655Z AUTO 10SM CLR 26/23 A2998 RMK AO2
KRKR 160635Z AUTO 10SM CLR 26/24 A2998 RMK AO2
KRKR 160615Z AUTO 10SM CLR 26/25 A2998 RMK AO2
KRKR 160555Z AUTO 10SM CLR 26/25 A2998 RMK AO2
KRKR 160535Z AUTO 10SM CLR 26/25 A2998 RMK AO2
KRKR 160515Z AUTO 10SM CLR 26/25 A2998 RMK AO2
KRKR 160455Z AUTO 00000KT 10SM CLR 27/25 A2998 RMK AO2
KRKR 160435Z AUTO 00000KT 10SM CLR 27/25 A2998 RMK AO2
KRKR 160415Z AUTO 00000KT 10SM CLR 27/25 A2998 RMK AO2 LTG DSNT SE
KRKR 160355Z AUTO 00000KT 10SM CLR 27/24 A2998 RMK AO2 LTG DSNT SE
KRKR 160335Z AUTO 00000KT 10SM CLR 27/25 A2997 RMK AO2 LTG DSNT SE
KRKR 160315Z AUTO 00000KT 10SM CLR 27/25 A2996 RMK AO2 LTG DSNT SE
KRKR 160255Z AUTO 00000KT 10SM CLR 27/24 A2995 RMK AO2 LTG DSNT SE
KRKR 160235Z AUTO 00000KT 10SM CLR 28/23 A2995 RMK AO2 LTG DSNT SE
KRKR 160215Z AUTO 00000KT 10SM SCT120 29/23 A2994 RMK AO2 LTG DSNT SE
KRKR 160155Z AUTO 00000KT 10SM SCT120 30/22 A2994 RMK AO2 LTG DSNT SE AND S
KRKR 160135Z AUTO 00000KT 10SM CLR 30/22 A2994 RMK AO2 LTG DSNT S
KRKR 160115Z AUTO 00000KT 10SM CLR 30/22 A2993 RMK AO2 LTG DSNT SE
KRKR 160055Z AUTO 00000KT 10SM VCTS CLR 31/23 A2993 RMK AO2 LTG DSNT SE AND NW
KRKR 160035Z AUTO 02003KT 10SM CLR 31/22 A2992 RMK AO2 LTG DSNT SE
KRKR 160015Z AUTO 02003KT 10SM CLR 32/22 A2992 RMK AO2 LTG DSNT SE
KRKR 152355Z AUTO 04003KT 10SM CLR 34/21 A2991 RMK AO2 LTG DSNT SE
KRKR 152335Z AUTO 00000KT 10SM CLR 35/20 A2990 RMK AO2 LTG DSNT E AND SE
KRKR 152315Z AUTO 00000KT 10SM CLR 35/20 A2990 RMK AO2 LTG DSNT SE
KRKR 152255Z AUTO 20004KT 10SM CLR 35/21 A2990 RMK AO2 LTG DSNT SE
KRKR 152235Z AUTO 21003KT 10SM CLR 35/22 A2991 RMK AO2 LTG DSNT SE
KRKR 152215Z AUTO 20004KT 10SM CLR 35/21 A2992 RMK AO2 LTG DSNT N AND NW
KRKR 152155Z AUTO 22004KT 10SM CLR 34/21 A2993 RMK AO2 LTG DSNT NW
KRKR 152135Z AUTO 23005KT 10SM CLR 34/21 A2993 RMK AO2 LTG DSNT NW
KRKR 152115Z AUTO 23006KT 10SM CLR 33/20 A2994 RMK AO2 LTG DSNT NW
KRKR 152055Z AUTO 22008KT 10SM CLR 34/21 A2995 RMK AO2 LTG DSNT NW
KRKR 152035Z AUTO 22009KT 10SM CLR 35/21 A2995 RMK AO2 LTG DSNT E
KRKR 152015Z AUTO 20007KT 10SM CLR 36/20 A2995 RMK AO2 LTG DSNT SW
KRKR 151955Z AUTO 20009KT 10SM CLR 36/20 A2996 RMK AO2
KRKR 151935Z AUTO 20005KT 10SM SCT060 SCT070 SCT080 35/21 A2996 RMK AO2
KRKR 151915Z AUTO 20010KT 10SM SCT060 BKN070 BKN080 35/22 A2997 RMK AO2
KRKR 151855Z AUTO 00000KT 10SM CLR 35/20 A2998 RMK AO2
KRKR 151835Z AUTO 00000KT 10SM CLR 35/21 A2999 RMK AO2
KRKR 151815Z AUTO 20005KT 10SM CLR 35/22 A2999 RMK AO2
KRKR 151755Z AUTO 17003KT 10SM CLR 34/21 A3000 RMK AO2
KRKR 151735Z AUTO 15003KT 10SM CLR 34/22 A3000 RMK AO2
KRKR 151715Z AUTO 21003KT 10SM CLR 33/22 A3001 RMK AO2
KRKR 151655Z AUTO 20003KT 10SM CLR 33/22 A3001 RMK AO2
KRKR 151635Z AUTO 19004KT 10SM CLR 32/22 A3001 RMK AO2
KRKR 151615Z AUTO 19004KT 10SM CLR 32/22 A3001 RMK AO2
KRKR 151555Z AUTO 00000KT 10SM CLR 31/21 A3001 RMK AO2
KRKR 151535Z AUTO 00000KT 10SM CLR 31/22 A3001 RMK AO2
KRKR 151515Z AUTO 19006KT 10SM CLR 31/22 A3001 RMK AO2
KRKR 151455Z AUTO 19007KT 10SM CLR 31/22 A3001 RMK AO2
KRKR 151435Z AUTO 18003KT 10SM CLR 30/21 A3002 RMK AO2
KRKR 151415Z AUTO 00000KT 10SM CLR 29/21 A3002 RMK AO2
KRKR 151355Z AUTO 16003KT 10SM CLR 28/21 A3002 RMK AO2
KRKR 151335Z AUTO 00000KT 10SM CLR 28/22 A3002 RMK AO2
KRKR 151315Z AUTO 00000KT 10SM CLR 28/22 A3003 RMK AO2
KRKR 151255Z AUTO 00000KT 10SM CLR 27/22 A3003 RMK AO2
KRKR 151235Z AUTO 00000KT 10SM SCT075 SCT110 27/21 A3002 RMK AO2
KRKR 151215Z AUTO 07004KT 10SM OVC075 27/21 A3003 RMK AO2
KRKR 151155Z AUTO 00000KT 10SM BKN075 BKN090 26/21 A3003 RMK AO2
KRKR 151135Z AUTO 00000KT 10SM CLR 23/22 A3001 RMK AO2
KRKR 151115Z AUTO 20003KT 10SM CLR 23/21 A3001 RMK AO2
KRKR 151055Z AUTO 00000KT 10SM CLR 25/21 A3000 RMK AO2
KRKR 151035Z AUTO 00000KT 10SM CLR 24/21 A2999 RMK AO2
KRKR 151015Z AUTO 00000KT 10SM CLR 24/22 A2999 RMK AO2
KRKR 150955Z AUTO 00000KT 10SM CLR 23/22 A2998 RMK AO2
KRKR 150935Z AUTO 00000KT 10SM VCTS CLR 24/21 A2998 RMK AO2 LTG DSNT NW
KRKR 150915Z AUTO 10SM CLR 25/21 A2998 RMK AO2 LTG DSNT NW
KRKR 150855Z AUTO 10SM CLR 24/21 A2998 RMK AO2
KRKR 150835Z AUTO 21003KT 10SM CLR 24/22 A2998 RMK AO2
KRKR 150815Z AUTO 00000KT 10SM CLR 25/21 A2998 RMK AO2 LTG DSNT NE AND NW
KRKR 150755Z AUTO 00000KT 10SM CLR 25/21 A2998 RMK AO2
KRKR 150735Z AUTO 00000KT 10SM CLR 25/21 A2998 RMK AO2
KRKR 150715Z AUTO 10SM CLR 25/21 A2998 RMK AO2 LTG DSNT NW
KRKR 150655Z AUTO 22003KT 10SM CLR 25/22 A2998 RMK AO2
KRKR 150635Z AUTO 10SM CLR 26/21 A2998 RMK AO2
KRKR 150615Z AUTO 10SM CLR 25/22 A2999 RMK AO2
KRKR 150555Z AUTO 10SM CLR 26/22 A3000 RMK AO2
KRKR 150535Z AUTO 10SM CLR 26/23 A3000 RMK AO2
KRKR 150515Z AUTO 10SM CLR 26/23 A3000 RMK AO2
KRKR 150455Z AUTO 00000KT 10SM CLR 26/23 A3000 RMK AO2
KRKR 150435Z AUTO 10SM CLR 26/23 A3000 RMK AO2
KRKR 150415Z AUTO 00000KT 10SM CLR 27/22 A3000 RMK AO2
KRKR 150355Z AUTO 00000KT 10SM CLR 26/24 A3000 RMK AO2
KRKR 150335Z AUTO 00000KT 10SM CLR 26/25 A2999 RMK AO2
KRKR 150315Z AUTO 00000KT 10SM CLR 28/25 A2998 RMK AO2
KRKR 150255Z AUTO 00000KT 10SM CLR 28/25 A2998 RMK AO2
KRKR 150235Z AUTO 00000KT 10SM CLR 28/25 A2996 RMK AO2
KRKR 150215Z AUTO 00000KT 10SM CLR 27/26 A2995 RMK AO2
KRKR 150155Z AUTO 00000KT 10SM CLR 29/26 A2995 RMK AO2
KRKR 150135Z AUTO 00000KT 10SM CLR 30/25 A2995 RMK AO2
KRKR 150115Z AUTO 00000KT 10SM CLR 31/23 A2994 RMK AO2
KRKR 150055Z AUTO 00000KT 10SM CLR 32/22 A2994 RMK AO2
KRKR 150035Z AUTO 19004KT 10SM CLR 33/22 A2994 RMK AO2
KRKR 150015Z AUTO 19003KT 10SM CLR 33/21 A2994 RMK AO2 LTG DSNT E
KRKR 142355Z AUTO 22003KT 10SM SCT070 34/21 A2994 RMK AO2
KRKR 142335Z AUTO 00000KT 10SM CLR 33/21 A2995 RMK AO2
KRKR 142315Z AUTO 21003KT 10SM CLR 34/21 A2995 RMK AO2
KRKR 142255Z AUTO 21006KT 10SM CLR 35/20 A2995 RMK AO2